sensor_id;sensor_type;location;lat;lon;timestamp;pressure;altitude;pressure_sealevel;temperature;humidity
8320;BME280;4197;42.130;24.746;2023-03-08T00:01:14;98767.03;;;6.40;100.00
8320;BME280;4197;42.130;24.746;2023-03-08T00:03:45;98769.38;;;6.42;100.00
8320;BME280;4197;42.130;24.746;2023-03-08T00:06:14;98766.84;;;6.33;100.00
8320;BME280;4197;42.130;24.746;2023-03-08T00:08:43;98767.50;;;6.30;100.00
8320;BME280;4197;42.130;24.746;2023-03-08T00:11:12;98773.22;;;6.29;100.00
8320;BME280;4197;42.130;24.746;2023-03-08T00:13:40;98767.50;;;6.30;100.00
8320;BME280;4197;42.130;24.746;2023-03-08T00:16:10;98769.06;;;6.31;100.00
8320;BME280;4197;42.130;24.746;2023-03-08T00:18:39;98769.44;;;6.30;100.00
8320;BME280;4197;42.130;24.746;2023-03-08T00:21:11;98762.59;;;6.20;100.00
8320;BME280;4197;42.130;24.746;2023-03-08T00:23:40;98763.28;;;6.17;100.00
8320;BME280;4197;42.130;24.746;2023-03-08T00:26:09;98763.19;;;6.13;100.00
8320;BME280;4197;42.130;24.746;2023-03-08T00:28:38;98769.25;;;6.10;100.00
8320;BME280;4197;42.130;24.746;2023-03-08T00:31:07;98765.34;;;6.08;100.00
8320;BME280;4197;42.130;24.746;2023-03-08T00:33:36;98770.03;;;5.98;100.00
8320;BME280;4197;42.130;24.746;2023-03-08T00:36:08;98763.78;;;5.94;100.00
8320;BME280;4197;42.130;24.746;2023-03-08T00:38:38;98760.63;;;5.92;100.00
8320;BME280;4197;42.130;24.746;2023-03-08T00:41:06;98760.06;;;5.87;100.00
8320;BME280;4197;42.130;24.746;2023-03-08T00:43:35;98759.19;;;5.82;100.00
8320;BME280;4197;42.130;24.746;2023-03-08T00:46:04;98763.56;;;5.75;100.00
8320;BME280;4197;42.130;24.746;2023-03-08T00:48:32;98755.81;;;5.73;100.00
8320;BME280;4197;42.130;24.746;2023-03-08T00:51:01;98757.63;;;5.69;100.00
8320;BME280;4197;42.130;24.746;2023-03-08T00:53:29;98758.09;;;5.71;100.00
8320;BME280;4197;42.130;24.746;2023-03-08T00:55:59;98762.22;;;5.69;100.00
8320;BME280;4197;42.130;24.746;2023-03-08T00:58:28;98754.72;;;5.62;100.00
8320;BME280;4197;42.130;24.746;2023-03-08T01:00:57;98754.72;;;5.62;100.00
8320;BME280;4197;42.130;24.746;2023-03-08T01:03:25;98752.47;;;5.64;100.00
8320;BME280;4197;42.130;24.746;2023-03-08T01:05:55;98750.91;;;5.63;100.00
8320;BME280;4197;42.130;24.746;2023-03-08T01:08:25;98753.06;;;5.57;100.00
8320;BME280;4197;42.130;24.746;2023-03-08T01:10:55;98751.59;;;5.60;100.00
8320;BME280;4197;42.130;24.746;2023-03-08T01:13:26;98744.63;;;5.59;100.00
8320;BME280;4197;42.130;24.746;2023-03-08T01:15:54;98748.91;;;5.60;100.00
8320;BME280;4197;42.130;24.746;2023-03-08T01:18:23;98750.91;;;5.63;100.00
8320;BME280;4197;42.130;24.746;2023-03-08T01:20:57;98751.25;;;5.49;100.00
8320;BME280;4197;42.130;24.746;2023-03-08T01:23:25;98751.25;;;5.37;100.00
8320;BME280;4197;42.130;24.746;2023-03-08T01:25:57;98752.69;;;5.34;100.00
8320;BME280;4197;42.130;24.746;2023-03-08T01:28:27;98756.97;;;5.35;100.00
8320;BME280;4197;42.130;24.746;2023-03-08T01:31:00;98756.09;;;5.44;100.00
8320;BME280;4197;42.130;24.746;2023-03-08T01:33:29;98752.84;;;5.38;100.00
8320;BME280;4197;42.130;24.746;2023-03-08T01:35:57;98757.75;;;5.36;100.00
8320;BME280;4197;42.130;24.746;2023-03-08T01:38:25;98750.47;;;5.36;100.00
8320;BME280;4197;42.130;24.746;2023-03-08T01:40:57;98765.59;;;5.41;100.00
8320;BME280;4197;42.130;24.746;2023-03-08T01:43:30;98763.03;;;5.32;100.00
8320;BME280;4197;42.130;24.746;2023-03-08T01:46:05;98758.53;;;5.24;100.00
8320;BME280;4197;42.130;24.746;2023-03-08T01:48:36;98762.31;;;5.11;100.00
8320;BME280;4197;42.130;24.746;2023-03-08T01:51:08;98766.66;;;5.03;100.00
8320;BME280;4197;42.130;24.746;2023-03-08T01:53:39;98765.31;;;4.97;100.00
8320;BME280;4197;42.130;24.746;2023-03-08T01:56:10;98762.84;;;4.92;100.00
8320;BME280;4197;42.130;24.746;2023-03-08T01:58:41;98767.09;;;4.93;100.00
8320;BME280;4197;42.130;24.746;2023-03-08T02:01:10;98771.25;;;4.90;100.00
8320;BME280;4197;42.130;24.746;2023-03-08T02:03:38;98767.53;;;4.83;100.00
8320;BME280;4197;42.130;24.746;2023-03-08T02:06:07;98757.66;;;4.75;100.00
8320;BME280;4197;42.130;24.746;2023-03-08T02:08:35;98767.38;;;4.67;100.00
8320;BME280;4197;42.130;24.746;2023-03-08T02:11:04;98759.97;;;4.64;100.00
8320;BME280;4197;42.130;24.746;2023-03-08T02:13:32;98751.91;;;4.64;100.00
8320;BME280;4197;42.130;24.746;2023-03-08T02:16:04;98754.81;;;4.59;100.00
8320;BME280;4197;42.130;24.746;2023-03-08T02:18:34;98754.91;;;4.62;100.00
8320;BME280;4197;42.130;24.746;2023-03-08T02:21:02;98763.78;;;4.63;100.00
8320;BME280;4197;42.130;24.746;2023-03-08T02:23:32;98760.38;;;4.54;100.00
8320;BME280;4197;42.130;24.746;2023-03-08T02:26:02;98760.13;;;4.46;100.00
8320;BME280;4197;42.130;24.746;2023-03-08T02:28:31;98762.47;;;4.48;100.00
8320;BME280;4197;42.130;24.746;2023-03-08T02:31:00;98750.69;;;4.40;100.00
8320;BME280;4197;42.130;24.746;2023-03-08T02:33:28;98755.94;;;4.37;100.00
8320;BME280;4197;42.130;24.746;2023-03-08T02:35:59;98764.66;;;4.34;100.00
8320;BME280;4197;42.130;24.746;2023-03-08T02:38:28;98762.63;;;4.31;100.00
8320;BME280;4197;42.130;24.746;2023-03-08T02:40:57;98768.31;;;4.29;100.00
8320;BME280;4197;42.130;24.746;2023-03-08T02:43:26;98782.47;;;4.38;100.00
8320;BME280;4197;42.130;24.746;2023-03-08T02:45:54;98790.53;;;4.38;100.00
8320;BME280;4197;42.130;24.746;2023-03-08T02:48:22;98781.22;;;4.36;100.00
8320;BME280;4197;42.130;24.746;2023-03-08T02:50:50;98777.19;;;4.30;100.00
8320;BME280;4197;42.130;24.746;2023-03-08T02:53:18;98775.47;;;4.25;100.00
8320;BME280;4197;42.130;24.746;2023-03-08T02:55:47;98783.91;;;4.15;100.00
8320;BME280;4197;42.130;24.746;2023-03-08T02:58:16;98780.03;;;4.03;100.00
8320;BME280;4197;42.130;24.746;2023-03-08T03:00:44;98778.66;;;3.97;100.00
8320;BME280;4197;42.130;24.746;2023-03-08T03:03:12;98785.16;;;3.96;100.00
8320;BME280;4197;42.130;24.746;2023-03-08T03:05:41;98782.78;;;3.95;100.00
8320;BME280;4197;42.130;24.746;2023-03-08T03:08:10;98777.31;;;3.91;100.00
8320;BME280;4197;42.130;24.746;2023-03-08T03:10:39;98790.25;;;3.89;100.00
8320;BME280;4197;42.130;24.746;2023-03-08T03:13:07;98788.69;;;3.88;100.00
8320;BME280;4197;42.130;24.746;2023-03-08T03:15:38;98799.41;;;3.88;100.00
8320;BME280;4197;42.130;24.746;2023-03-08T03:18:06;98795.00;;;3.84;100.00
8320;BME280;4197;42.130;24.746;2023-03-08T03:20:34;98797.56;;;3.80;100.00
8320;BME280;4197;42.130;24.746;2023-03-08T03:23:03;98789.97;;;3.82;100.00
8320;BME280;4197;42.130;24.746;2023-03-08T03:25:35;98791.72;;;3.78;100.00
8320;BME280;4197;42.130;24.746;2023-03-08T03:28:04;98793.63;;;3.77;100.00
8320;BME280;4197;42.130;24.746;2023-03-08T03:30:32;98797.69;;;3.84;100.00
8320;BME280;4197;42.130;24.746;2023-03-08T03:33:02;98791.03;;;3.90;100.00
8320;BME280;4197;42.130;24.746;2023-03-08T03:35:31;98796.72;;;3.88;100.00
8320;BME280;4197;42.130;24.746;2023-03-08T03:38:00;98795.31;;;3.82;100.00
8320;BME280;4197;42.130;24.746;2023-03-08T03:40:28;98802.47;;;3.78;100.00
8320;BME280;4197;42.130;24.746;2023-03-08T03:42:56;98808.66;;;3.70;100.00
8320;BME280;4197;42.130;24.746;2023-03-08T03:45:24;98807.56;;;3.62;100.00
8320;BME280;4197;42.130;24.746;2023-03-08T03:47:52;98808.53;;;3.66;100.00
8320;BME280;4197;42.130;24.746;2023-03-08T03:50:22;98814.78;;;3.70;100.00
8320;BME280;4197;42.130;24.746;2023-03-08T03:52:50;98819.66;;;3.77;100.00
8320;BME280;4197;42.130;24.746;2023-03-08T03:55:18;98822.00;;;3.78;100.00
8320;BME280;4197;42.130;24.746;2023-03-08T03:57:47;98822.53;;;3.72;100.00
8320;BME280;4197;42.130;24.746;2023-03-08T04:00:16;98826.66;;;3.90;100.00
8320;BME280;4197;42.130;24.746;2023-03-08T04:02:44;98819.31;;;3.78;100.00
8320;BME280;4197;42.130;24.746;2023-03-08T04:05:13;98818.25;;;3.71;100.00
8320;BME280;4197;42.130;24.746;2023-03-08T04:07:42;98825.09;;;3.60;100.00
8320;BME280;4197;42.130;24.746;2023-03-08T04:10:10;98834.44;;;3.53;100.00
8320;BME280;4197;42.130;24.746;2023-03-08T04:12:38;98838.22;;;3.52;100.00
8320;BME280;4197;42.130;24.746;2023-03-08T04:15:07;98835.00;;;3.68;100.00
8320;BME280;4197;42.130;24.746;2023-03-08T04:17:35;98841.81;;;3.56;100.00
8320;BME280;4197;42.130;24.746;2023-03-08T04:20:05;98837.75;;;3.50;100.00
8320;BME280;4197;42.130;24.746;2023-03-08T04:22:33;98843.47;;;3.40;100.00
8320;BME280;4197;42.130;24.746;2023-03-08T04:25:03;98853.91;;;3.33;100.00
8320;BME280;4197;42.130;24.746;2023-03-08T04:27:31;98852.00;;;3.33;100.00
8320;BME280;4197;42.130;24.746;2023-03-08T04:30:00;98857.38;;;3.33;100.00
8320;BME280;4197;42.130;24.746;2023-03-08T04:32:30;98847.72;;;3.41;100.00
8320;BME280;4197;42.130;24.746;2023-03-08T04:34:58;98849.59;;;3.41;100.00
8320;BME280;4197;42.130;24.746;2023-03-08T04:37:26;98858.59;;;3.45;100.00
8320;BME280;4197;42.130;24.746;2023-03-08T04:39:54;98851.06;;;3.38;100.00
8320;BME280;4197;42.130;24.746;2023-03-08T04:42:24;98858.63;;;3.36;100.00
8320;BME280;4197;42.130;24.746;2023-03-08T04:44:52;98853.44;;;3.31;100.00
8320;BME280;4197;42.130;24.746;2023-03-08T04:47:21;98848.53;;;3.33;100.00
8320;BME280;4197;42.130;24.746;2023-03-08T04:49:49;98853.25;;;3.36;100.00
8320;BME280;4197;42.130;24.746;2023-03-08T04:52:17;98859.25;;;3.33;100.00
8320;BME280;4197;42.130;24.746;2023-03-08T04:54:46;98852.63;;;3.39;100.00
8320;BME280;4197;42.130;24.746;2023-03-08T04:57:14;98842.84;;;3.34;100.00
8320;BME280;4197;42.130;24.746;2023-03-08T04:59:44;98839.81;;;3.45;100.00
8320;BME280;4197;42.130;24.746;2023-03-08T05:02:13;98853.06;;;3.50;100.00
8320;BME280;4197;42.130;24.746;2023-03-08T05:04:41;98858.25;;;3.46;100.00
8320;BME280;4197;42.130;24.746;2023-03-08T05:07:09;98867.13;;;3.38;100.00
8320;BME280;4197;42.130;24.746;2023-03-08T05:09:38;98861.31;;;3.36;100.00
8320;BME280;4197;42.130;24.746;2023-03-08T05:12:08;98870.13;;;3.37;100.00
8320;BME280;4197;42.130;24.746;2023-03-08T05:14:37;98863.34;;;3.39;100.00
8320;BME280;4197;42.130;24.746;2023-03-08T05:17:08;98858.75;;;3.40;100.00
8320;BME280;4197;42.130;24.746;2023-03-08T05:19:36;98859.72;;;3.44;100.00
8320;BME280;4197;42.130;24.746;2023-03-08T05:22:04;98866.94;;;3.43;100.00
8320;BME280;4197;42.130;24.746;2023-03-08T05:24:33;98865.84;;;3.44;100.00
8320;BME280;4197;42.130;24.746;2023-03-08T05:27:01;98867.88;;;3.47;100.00
8320;BME280;4197;42.130;24.746;2023-03-08T05:29:30;98876.19;;;3.54;100.00
8320;BME280;4197;42.130;24.746;2023-03-08T05:32:00;98865.59;;;3.67;100.00
8320;BME280;4197;42.130;24.746;2023-03-08T05:34:32;98864.97;;;3.70;100.00
8320;BME280;4197;42.130;24.746;2023-03-08T05:37:01;98858.03;;;3.69;100.00
8320;BME280;4197;42.130;24.746;2023-03-08T05:39:29;98867.00;;;3.73;100.00
8320;BME280;4197;42.130;24.746;2023-03-08T05:41:57;98871.72;;;3.76;100.00
8320;BME280;4197;42.130;24.746;2023-03-08T05:44:26;98865.69;;;3.79;100.00
8320;BME280;4197;42.130;24.746;2023-03-08T05:46:54;98866.66;;;3.83;100.00
8320;BME280;4197;42.130;24.746;2023-03-08T05:49:23;98872.75;;;3.92;100.00
8320;BME280;4197;42.130;24.746;2023-03-08T05:51:52;98876.03;;;3.98;100.00
8320;BME280;4197;42.130;24.746;2023-03-08T05:54:21;98889.56;;;4.01;100.00
8320;BME280;4197;42.130;24.746;2023-03-08T05:56:50;98895.09;;;4.05;100.00
8320;BME280;4197;42.130;24.746;2023-03-08T05:59:18;98902.97;;;4.10;100.00
8320;BME280;4197;42.130;24.746;2023-03-08T06:01:47;98904.78;;;4.18;100.00
8320;BME280;4197;42.130;24.746;2023-03-08T06:04:16;98906.13;;;4.33;100.00
8320;BME280;4197;42.130;24.746;2023-03-08T06:06:44;98901.03;;;4.40;100.00
8320;BME280;4197;42.130;24.746;2023-03-08T06:09:14;98903.63;;;4.58;100.00
8320;BME280;4197;42.130;24.746;2023-03-08T06:11:43;98915.97;;;4.71;100.00
8320;BME280;4197;42.130;24.746;2023-03-08T06:14:11;98919.59;;;4.75;100.00
8320;BME280;4197;42.130;24.746;2023-03-08T06:16:40;98919.91;;;4.95;100.00
8320;BME280;4197;42.130;24.746;2023-03-08T06:19:08;98924.81;;;5.13;100.00
8320;BME280;4197;42.130;24.746;2023-03-08T06:21:37;98923.81;;;5.18;100.00
8320;BME280;4197;42.130;24.746;2023-03-08T06:24:05;98927.63;;;5.17;100.00
8320;BME280;4197;42.130;24.746;2023-03-08T06:26:35;98925.28;;;5.16;100.00
8320;BME280;4197;42.130;24.746;2023-03-08T06:29:03;98925.00;;;5.29;100.00
8320;BME280;4197;42.130;24.746;2023-03-08T06:31:32;98924.34;;;5.32;100.00
8320;BME280;4197;42.130;24.746;2023-03-08T06:34:00;98928.38;;;5.39;100.00
8320;BME280;4197;42.130;24.746;2023-03-08T06:36:29;98928.66;;;5.58;100.00
8320;BME280;4197;42.130;24.746;2023-03-08T06:38:57;98939.00;;;5.68;100.00
8320;BME280;4197;42.130;24.746;2023-03-08T06:41:27;98947.75;;;5.90;100.00
8320;BME280;4197;42.130;24.746;2023-03-08T06:43:57;98958.13;;;6.00;100.00
8320;BME280;4197;42.130;24.746;2023-03-08T06:46:26;98962.84;;;6.15;100.00
8320;BME280;4197;42.130;24.746;2023-03-08T06:48:54;98963.28;;;6.17;100.00
8320;BME280;4197;42.130;24.746;2023-03-08T06:51:23;98968.00;;;6.45;100.00
8320;BME280;4197;42.130;24.746;2023-03-08T06:53:51;98971.94;;;6.35;100.00
8320;BME280;4197;42.130;24.746;2023-03-08T06:56:19;98972.38;;;6.37;100.00
8320;BME280;4197;42.130;24.746;2023-03-08T06:58:48;98978.53;;;6.50;100.00
8320;BME280;4197;42.130;24.746;2023-03-08T07:01:17;98972.25;;;6.58;100.00
8320;BME280;4197;42.130;24.746;2023-03-08T07:03:46;98978.97;;;6.77;100.00
8320;BME280;4197;42.130;24.746;2023-03-08T07:06:15;98980.50;;;6.90;100.00
8320;BME280;4197;42.130;24.746;2023-03-08T07:08:44;98979.72;;;6.89;100.00
8320;BME280;4197;42.130;24.746;2023-03-08T07:11:12;98982.72;;;7.00;100.00
8320;BME280;4197;42.130;24.746;2023-03-08T07:13:41;98986.41;;;7.08;100.00
8320;BME280;4197;42.130;24.746;2023-03-08T07:16:11;98987.41;;;7.15;100.00
8320;BME280;4197;42.130;24.746;2023-03-08T07:18:43;98987.03;;;7.29;100.00
8320;BME280;4197;42.130;24.746;2023-03-08T07:21:11;98984.03;;;7.47;100.00
8320;BME280;4197;42.130;24.746;2023-03-08T07:23:39;98987.88;;;7.62;100.00
8320;BME280;4197;42.130;24.746;2023-03-08T07:26:09;98996.34;;;7.76;99.04
8320;BME280;4197;42.130;24.746;2023-03-08T07:28:38;98990.03;;;8.00;96.07
8320;BME280;4197;42.130;24.746;2023-03-08T07:31:09;98985.00;;;8.14;94.52
8320;BME280;4197;42.130;24.746;2023-03-08T07:33:38;98987.78;;;8.34;89.66
8320;BME280;4197;42.130;24.746;2023-03-08T07:36:08;98990.91;;;8.36;90.90
8320;BME280;4197;42.130;24.746;2023-03-08T07:38:37;98990.06;;;8.47;89.09
8320;BME280;4197;42.130;24.746;2023-03-08T07:41:06;98985.28;;;8.57;87.92
8320;BME280;4197;42.130;24.746;2023-03-08T07:43:34;98989.78;;;8.68;87.54
8320;BME280;4197;42.130;24.746;2023-03-08T07:46:04;98989.00;;;8.68;88.82
8320;BME280;4197;42.130;24.746;2023-03-08T07:48:32;98989.84;;;8.72;88.19
8320;BME280;4197;42.130;24.746;2023-03-08T07:51:02;98989.25;;;8.79;88.58
8320;BME280;4197;42.130;24.746;2023-03-08T07:53:34;98985.03;;;8.81;88.80
8320;BME280;4197;42.130;24.746;2023-03-08T07:56:03;98984.34;;;8.84;88.78
8320;BME280;4197;42.130;24.746;2023-03-08T07:58:31;98980.16;;;9.06;86.09
8320;BME280;4197;42.130;24.746;2023-03-08T08:01:00;98982.50;;;9.08;85.62
8320;BME280;4197;42.130;24.746;2023-03-08T08:03:28;98972.97;;;9.14;85.36
8320;BME280;4197;42.130;24.746;2023-03-08T08:06:00;98976.16;;;9.39;81.49
8320;BME280;4197;42.130;24.746;2023-03-08T08:08:29;98975.25;;;9.51;80.59
8320;BME280;4197;42.130;24.746;2023-03-08T08:10:59;98970.38;;;9.60;79.47
8320;BME280;4197;42.130;24.746;2023-03-08T08:13:28;98971.22;;;9.64;80.29
8320;BME280;4197;42.130;24.746;2023-03-08T08:15:57;98970.81;;;9.62;80.58
8320;BME280;4197;42.130;24.746;2023-03-08T08:18:26;98977.94;;;9.70;80.74
8320;BME280;4197;42.130;24.746;2023-03-08T08:21:01;98973.88;;;9.83;80.74
8320;BME280;4197;42.130;24.746;2023-03-08T08:23:31;98970.25;;;9.95;80.35
8320;BME280;4197;42.130;24.746;2023-03-08T08:26:03;98972.41;;;10.09;79.35
8320;BME280;4197;42.130;24.746;2023-03-08T08:28:32;98970.34;;;10.25;78.27
8320;BME280;4197;42.130;24.746;2023-03-08T08:31:02;98968.19;;;10.35;78.68
8320;BME280;4197;42.130;24.746;2023-03-08T08:33:32;98975.16;;;10.59;76.48
8320;BME280;4197;42.130;24.746;2023-03-08T08:36:03;98979.53;;;10.97;73.39
8320;BME280;4197;42.130;24.746;2023-03-08T08:38:31;98983.09;;;11.01;74.43
8320;BME280;4197;42.130;24.746;2023-03-08T08:41:03;98990.81;;;11.29;72.16
8320;BME280;4197;42.130;24.746;2023-03-08T08:43:33;98983.88;;;11.35;71.00
8320;BME280;4197;42.130;24.746;2023-03-08T08:46:03;98985.00;;;11.31;71.60
8320;BME280;4197;42.130;24.746;2023-03-08T08:48:35;98984.44;;;11.48;71.49
8320;BME280;4197;42.130;24.746;2023-03-08T08:51:21;98987.81;;;11.75;67.91
8320;BME280;4197;42.130;24.746;2023-03-08T08:53:49;98982.88;;;11.84;67.41
8320;BME280;4197;42.130;24.746;2023-03-08T08:56:21;98978.31;;;11.92;67.51
8320;BME280;4197;42.130;24.746;2023-03-08T08:58:54;98980.47;;;12.17;66.19
8320;BME280;4197;42.130;24.746;2023-03-08T09:01:24;98984.09;;;12.35;63.92
8320;BME280;4197;42.130;24.746;2023-03-08T09:03:52;98986.13;;;12.45;63.40
8320;BME280;4197;42.130;24.746;2023-03-08T09:06:22;98972.53;;;12.42;63.53
8320;BME280;4197;42.130;24.746;2023-03-08T09:08:51;98971.78;;;12.48;63.87
8320;BME280;4197;42.130;24.746;2023-03-08T09:11:23;98966.75;;;12.50;63.73
8320;BME280;4197;42.130;24.746;2023-03-08T09:13:53;98964.13;;;12.68;63.03
8320;BME280;4197;42.130;24.746;2023-03-08T09:16:23;98958.41;;;12.88;61.92
8320;BME280;4197;42.130;24.746;2023-03-08T09:18:51;98945.56;;;12.88;61.66
8320;BME280;4197;42.130;24.746;2023-03-08T09:21:22;98936.28;;;12.93;60.43
8320;BME280;4197;42.130;24.746;2023-03-08T09:23:51;98937.16;;;13.18;59.23
8320;BME280;4197;42.130;24.746;2023-03-08T09:26:19;98929.47;;;13.31;59.03
8320;BME280;4197;42.130;24.746;2023-03-08T09:28:49;98936.09;;;13.37;57.62
8320;BME280;4197;42.130;24.746;2023-03-08T09:31:17;98931.88;;;13.61;56.16
8320;BME280;4197;42.130;24.746;2023-03-08T09:33:47;98929.19;;;13.87;54.16
8320;BME280;4197;42.130;24.746;2023-03-08T09:36:18;98936.97;;;13.81;53.90
8320;BME280;4197;42.130;24.746;2023-03-08T09:38:48;98935.78;;;13.93;53.92
8320;BME280;4197;42.130;24.746;2023-03-08T09:41:49;98937.75;;;14.17;53.34
8320;BME280;4197;42.130;24.746;2023-03-08T09:44:54;98940.06;;;14.26;53.78
8320;BME280;4197;42.130;24.746;2023-03-08T09:47:36;98940.06;;;14.40;53.96
8320;BME280;4197;42.130;24.746;2023-03-08T09:50:19;98942.00;;;14.61;53.35
8320;BME280;4197;42.130;24.746;2023-03-08T09:52:52;98938.88;;;14.77;52.86
8320;BME280;4197;42.130;24.746;2023-03-08T09:55:24;98932.13;;;15.07;50.69
8320;BME280;4197;42.130;24.746;2023-03-08T09:58:12;98935.59;;;15.22;51.33
8320;BME280;4197;42.130;24.746;2023-03-08T10:00:44;98937.00;;;15.48;50.29
8320;BME280;4197;42.130;24.746;2023-03-08T10:03:28;98927.88;;;15.76;48.97
8320;BME280;4197;42.130;24.746;2023-03-08T10:06:09;98929.03;;;15.78;49.16
8320;BME280;4197;42.130;24.746;2023-03-08T10:08:48;98922.44;;;15.72;49.90
8320;BME280;4197;42.130;24.746;2023-03-08T10:11:24;98922.59;;;16.03;47.99
8320;BME280;4197;42.130;24.746;2023-03-08T10:13:59;98925.28;;;16.06;47.00
8320;BME280;4197;42.130;24.746;2023-03-08T10:16:35;98917.50;;;16.05;46.56
8320;BME280;4197;42.130;24.746;2023-03-08T10:19:15;98916.06;;;16.35;46.32
8320;BME280;4197;42.130;24.746;2023-03-08T10:21:45;98915.59;;;16.43;45.60
8320;BME280;4197;42.130;24.746;2023-03-08T10:24:16;98921.56;;;16.31;45.16
8320;BME280;4197;42.130;24.746;2023-03-08T10:26:54;98906.41;;;16.23;44.87
8320;BME280;4197;42.130;24.746;2023-03-08T10:29:30;98904.75;;;16.33;44.96
8320;BME280;4197;42.130;24.746;2023-03-08T10:32:00;98904.13;;;16.56;43.16
8320;BME280;4197;42.130;24.746;2023-03-08T10:34:30;98904.69;;;16.78;41.60
8320;BME280;4197;42.130;24.746;2023-03-08T10:37:01;98895.72;;;16.77;40.64
8320;BME280;4197;42.130;24.746;2023-03-08T10:39:30;98892.94;;;16.81;40.34
8320;BME280;4197;42.130;24.746;2023-03-08T10:42:00;98889.63;;;16.97;40.26
8320;BME280;4197;42.130;24.746;2023-03-08T10:44:31;98885.16;;;17.06;41.16
8320;BME280;4197;42.130;24.746;2023-03-08T10:47:17;98875.44;;;17.32;39.16
8320;BME280;4197;42.130;24.746;2023-03-08T10:49:46;98878.66;;;17.27;38.98
8320;BME280;4197;42.130;24.746;2023-03-08T10:52:21;98873.75;;;16.81;38.62
8320;BME280;4197;42.130;24.746;2023-03-08T10:55:01;98872.25;;;16.72;39.20
8320;BME280;4197;42.130;24.746;2023-03-08T10:57:31;98866.06;;;17.03;38.70
8320;BME280;4197;42.130;24.746;2023-03-08T11:00:03;98859.75;;;17.06;38.29
8320;BME280;4197;42.130;24.746;2023-03-08T11:02:39;98859.81;;;17.02;37.82
8320;BME280;4197;42.130;24.746;2023-03-08T11:05:17;98853.81;;;17.11;38.28
8320;BME280;4197;42.130;24.746;2023-03-08T11:07:50;98848.06;;;17.02;37.70
8320;BME280;4197;42.130;24.746;2023-03-08T11:10:20;98850.34;;;17.07;37.96
8320;BME280;4197;42.130;24.746;2023-03-08T11:13:00;98845.75;;;17.00;37.74
8320;BME280;4197;42.130;24.746;2023-03-08T11:15:30;98845.78;;;16.97;37.09
8320;BME280;4197;42.130;24.746;2023-03-08T11:18:05;98838.22;;;16.77;37.20
8320;BME280;4197;42.130;24.746;2023-03-08T11:20:39;98837.81;;;16.75;37.21
8320;BME280;4197;42.130;24.746;2023-03-08T11:23:15;98830.81;;;16.74;37.25
8320;BME280;4197;42.130;24.746;2023-03-08T11:25:52;98828.81;;;16.78;37.73
8320;BME280;4197;42.130;24.746;2023-03-08T11:28:47;98816.50;;;16.93;38.18
8320;BME280;4197;42.130;24.746;2023-03-08T11:31:27;98809.47;;;17.20;36.21
8320;BME280;4197;42.130;24.746;2023-03-08T11:34:20;98808.25;;;17.21;35.76
8320;BME280;4197;42.130;24.746;2023-03-08T11:36:58;98801.25;;;17.20;36.37
8320;BME280;4197;42.130;24.746;2023-03-08T11:39:31;98794.94;;;17.23;35.48
8320;BME280;4197;42.130;24.746;2023-03-08T11:42:06;98794.41;;;17.31;35.98
8320;BME280;4197;42.130;24.746;2023-03-08T11:44:52;98794.97;;;17.46;36.49
8320;BME280;4197;42.130;24.746;2023-03-08T11:50:43;98787.94;;;17.69;35.81
8320;BME280;4197;42.130;24.746;2023-03-08T11:53:18;98787.94;;;17.69;35.73
8320;BME280;4197;42.130;24.746;2023-03-08T11:56:23;98789.97;;;17.65;35.47
8320;BME280;4197;42.130;24.746;2023-03-08T11:58:58;98791.47;;;17.69;35.20
8320;BME280;4197;42.130;24.746;2023-03-08T12:01:34;98786.75;;;17.70;33.86
8320;BME280;4197;42.130;24.746;2023-03-08T12:04:08;98787.66;;;17.63;34.20
8320;BME280;4197;42.130;24.746;2023-03-08T12:06:40;98786.75;;;17.70;34.83
8320;BME280;4197;42.130;24.746;2023-03-08T12:09:17;98791.09;;;17.67;35.63
8320;BME280;4197;42.130;24.746;2023-03-08T12:11:52;98783.78;;;17.60;34.10
8320;BME280;4197;42.130;24.746;2023-03-08T12:14:25;98776.56;;;17.70;33.90
8320;BME280;4197;42.130;24.746;2023-03-08T12:17:00;98767.25;;;17.64;33.83
8320;BME280;4197;42.130;24.746;2023-03-08T12:19:36;98763.44;;;17.81;34.57
8320;BME280;4197;42.130;24.746;2023-03-08T12:22:22;98760.03;;;17.97;33.94
8320;BME280;4197;42.130;24.746;2023-03-08T12:24:58;98764.41;;;18.15;34.40
8320;BME280;4197;42.130;24.746;2023-03-08T12:27:31;98764.91;;;18.30;33.61
8320;BME280;4197;42.130;24.746;2023-03-08T12:30:14;98767.66;;;18.49;32.34
8320;BME280;4197;42.130;24.746;2023-03-08T12:32:43;98766.59;;;18.43;33.23
8320;BME280;4197;42.130;24.746;2023-03-08T12:35:31;98763.50;;;18.41;33.54
8320;BME280;4197;42.130;24.746;2023-03-08T12:38:02;98764.47;;;18.51;33.73
8320;BME280;4197;42.130;24.746;2023-03-08T12:40:37;98769.81;;;18.58;32.20
8320;BME280;4197;42.130;24.746;2023-03-08T12:43:08;98764.91;;;18.49;31.93
8320;BME280;4197;42.130;24.746;2023-03-08T12:45:38;98761.69;;;18.35;32.38
8320;BME280;4197;42.130;24.746;2023-03-08T12:48:16;98758.88;;;18.38;32.54
8320;BME280;4197;42.130;24.746;2023-03-08T12:50:55;98759.34;;;18.33;32.61
8320;BME280;4197;42.130;24.746;2023-03-08T12:53:33;98758.44;;;18.60;31.93
8320;BME280;4197;42.130;24.746;2023-03-08T12:56:20;98760.09;;;18.54;32.11
8320;BME280;4197;42.130;24.746;2023-03-08T12:58:51;98750.81;;;18.47;32.39
8320;BME280;4197;42.130;24.746;2023-03-08T13:01:33;98757.94;;;18.45;32.20
8320;BME280;4197;42.130;24.746;2023-03-08T13:04:03;98756.25;;;18.11;32.46
8320;BME280;4197;42.130;24.746;2023-03-08T13:09:58;98749.78;;;18.41;32.53
8320;BME280;4197;42.130;24.746;2023-03-08T13:12:49;98750.25;;;18.56;32.29
8320;BME280;4197;42.130;24.746;2023-03-08T13:15:23;98749.19;;;18.50;32.00
8320;BME280;4197;42.130;24.746;2023-03-08T13:17:58;98742.94;;;18.49;32.71
8320;BME280;4197;42.130;24.746;2023-03-08T13:23:32;98742.31;;;18.42;33.05
8320;BME280;4197;42.130;24.746;2023-03-08T13:26:19;98733.50;;;18.50;33.27
8320;BME280;4197;42.130;24.746;2023-03-08T13:28:52;98739.44;;;18.49;33.60
8320;BME280;4197;42.130;24.746;2023-03-08T13:31:26;98737.38;;;18.53;33.96
8320;BME280;4197;42.130;24.746;2023-03-08T13:33:56;98742.22;;;18.65;33.53
8320;BME280;4197;42.130;24.746;2023-03-08T13:36:26;98740.38;;;18.79;33.22
8320;BME280;4197;42.130;24.746;2023-03-08T13:38:57;98741.50;;;18.81;33.39
8320;BME280;4197;42.130;24.746;2023-03-08T13:41:37;98740.41;;;18.95;33.72
8320;BME280;4197;42.130;24.746;2023-03-08T13:44:11;98735.94;;;19.17;32.88